Time;durP1;ratioP1;P1;durP2;ratioP2;P2;SDS_P1;SDS_P2;PMS_P1;PMS_P2;Temp;Humidity;BMP_temperature;BMP_pressure;BME280_temperature;BME280_humidity;BME280_pressure;Samples;Min_cycle;Max_cycle;Signal;HPM_P1;HPM_P2
2023/08/31 00:00:09;;;;;;;;;;;;;;;22.45;54.75;99182.94;4465590;32;33867;-74
2023/08/31 00:02:39;;;;;;;;;;;;;;;22.85;53.42;99185.00;4468928;32;33256;-76
2023/08/31 00:05:06;;;;;;;;;;;;;;;22.61;53.51;99188.88;4469680;32;34258;-75
2023/08/31 00:07:34;;;;;;;;;;;;;;;22.90;53.05;99186.66;4468122;32;34932;-75
2023/08/31 00:10:08;;;;;;;;;;;;;;;23.16;52.40;99180.16;4465792;32;34722;-75
2023/08/31 00:12:36;;;;;;;;;;;;;;;24.83;46.89;99183.97;4466405;32;35051;-75
2023/08/31 00:15:04;;;;;;;;;;;;;;;24.96;46.66;99186.34;4468496;32;33234;-74
2023/08/31 00:17:32;;;;;;;;;;;;;;;25.23;45.53;99177.75;4468230;32;33912;-75
2023/08/31 00:19:59;;;;;;;;;;;;;;;25.28;45.46;99181.16;4465985;32;34606;-75
2023/08/31 00:22:28;;;;;;;;;;;;;;;24.78;46.80;99179.66;4468325;32;34989;-75
2023/08/31 00:24:55;;;;;;;;;;;;;;;24.64;46.70;99180.00;4469022;32;33505;-75
2023/08/31 00:27:23;;;;;;;;;;;;;;;24.61;47.08;99169.44;4469173;32;34155;-74
2023/08/31 00:29:50;;;;;;;;;;;;;;;24.19;48.42;99180.06;4469116;32;34048;-74
2023/08/31 00:32:22;;;;;;;;;;;;;;;24.04;49.22;99184.75;4468570;32;35087;-75
2023/08/31 00:34:49;;;;;;;;;;;;;;;24.42;48.05;99183.09;4469263;32;32722;-76
2023/08/31 00:37:17;;;;;;;;;;;;;;;24.70;47.62;99188.66;4468779;32;34528;-74
2023/08/31 00:39:44;;;;;;;;;;;;;;;25.61;44.68;99189.16;4468883;32;33775;-75
2023/08/31 00:42:14;;;;;;;;;;;;;;;24.73;47.37;99182.44;4466334;32;34444;-75
2023/08/31 00:44:41;;;;;;;;;;;;;;;24.46;48.27;99186.53;4468883;32;33665;-75
2023/08/31 00:47:08;;;;;;;;;;;;;;;22.31;53.93;99188.38;4469025;32;34832;-75
2023/08/31 00:49:36;;;;;;;;;;;;;;;22.61;53.93;99186.22;4464938;32;33868;-74
2023/08/31 00:52:04;;;;;;;;;;;;;;;21.94;55.49;99188.78;4468670;32;34437;-74
2023/08/31 00:54:32;;;;;;;;;;;;;;;23.65;50.50;99189.88;4464954;32;33556;-74
2023/08/31 00:57:00;;;;;;;;;;;;;;;23.04;51.88;99193.53;4468464;32;33984;-74
2023/08/31 00:59:29;;;;;;;;;;;;;;;22.56;53.59;99196.84;4468154;32;34909;-75
2023/08/31 01:02:05;;;;;;;;;;;;;;;23.01;52.73;99196.22;4467035;32;34463;-75
2023/08/31 01:04:50;;;;;;;;;;;;;;;22.52;54.27;99195.13;4455042;32;33127;-75
2023/08/31 01:07:22;;;;;;;;;;;;;;;23.18;52.33;99202.13;4457301;32;32945;-74
2023/08/31 01:09:58;;;;;;;;;;;;;;;22.87;53.26;99205.22;4459398;32;34490;-74
2023/08/31 01:12:30;;;;;;;;;;;;;;;23.14;52.94;99203.06;4466854;32;34629;-74
2023/08/31 01:15:04;;;;;;;;;;;;;;;23.13;52.67;99204.84;4468322;32;33635;-76
2023/08/31 01:17:31;;;;;;;;;;;;;;;22.87;53.70;99204.31;4468284;32;34240;-74
2023/08/31 01:19:59;;;;;;;;;;;;;;;23.67;51.31;99209.22;4461328;32;34145;-76
2023/08/31 01:22:26;;;;;;;;;;;;;;;23.34;52.16;99206.25;4461608;32;34085;-76
2023/08/31 01:24:54;;;;;;;;;;;;;;;22.88;53.75;99206.94;4468170;32;33180;-74
2023/08/31 01:27:21;;;;;;;;;;;;;;;23.19;52.92;99216.22;4467362;32;34194;-75
2023/08/31 01:29:49;;;;;;;;;;;;;;;23.73;51.39;99224.97;4468060;32;34164;-75
2023/08/31 01:32:17;;;;;;;;;;;;;;;23.89;50.63;99224.72;4464782;32;33582;-75
2023/08/31 01:34:44;;;;;;;;;;;;;;;23.91;50.59;99225.56;4466299;32;32886;-74
2023/08/31 01:37:13;;;;;;;;;;;;;;;23.47;51.91;99217.50;4467433;32;34070;-75
2023/08/31 01:39:52;;;;;;;;;;;;;;;23.53;51.74;99216.53;4459212;32;34731;-74
2023/08/31 01:42:20;;;;;;;;;;;;;;;23.36;51.59;99212.38;4461239;32;34289;-76
2023/08/31 01:44:48;;;;;;;;;;;;;;;22.72;53.87;99211.59;4464979;32;33622;-74
2023/08/31 01:47:16;;;;;;;;;;;;;;;23.38;52.15;99211.50;4462966;32;33989;-75
2023/08/31 01:49:45;;;;;;;;;;;;;;;23.06;52.77;99215.53;4460658;32;33979;-75
2023/08/31 01:52:12;;;;;;;;;;;;;;;23.30;52.05;99209.84;4465445;32;35201;-74
2023/08/31 01:54:39;;;;;;;;;;;;;;;23.83;50.71;99215.13;4467449;32;33704;-75
2023/08/31 01:57:07;;;;;;;;;;;;;;;23.44;51.95;99214.03;4467154;32;35044;-75
2023/08/31 01:59:43;;;;;;;;;;;;;;;23.20;52.82;99212.66;4461270;32;178742;-75
2023/08/31 02:02:10;;;;;;;;;;;;;;;23.08;53.17;99221.66;4468233;32;34339;-75
2023/08/31 02:04:38;;;;;;;;;;;;;;;22.56;54.24;99210.94;4467995;32;33723;-76
2023/08/31 02:07:05;;;;;;;;;;;;;;;23.58;51.49;99225.22;4466907;32;34109;-75
2023/08/31 02:09:33;;;;;;;;;;;;;;;24.57;48.79;99211.03;4468755;32;33887;-75
2023/08/31 02:12:03;;;;;;;;;;;;;;;24.83;47.93;99205.16;4469191;32;32903;-74
2023/08/31 02:14:31;;;;;;;;;;;;;;;23.39;51.59;99214.09;4468259;32;34267;-75
2023/08/31 02:16:58;;;;;;;;;;;;;;;22.60;54.31;99211.75;4467911;32;34052;-75
2023/08/31 02:19:26;;;;;;;;;;;;;;;23.09;52.86;99216.34;4464951;32;35059;-75
2023/08/31 02:21:53;;;;;;;;;;;;;;;22.84;54.23;99221.09;4468476;32;35131;-75
2023/08/31 02:24:20;;;;;;;;;;;;;;;23.14;53.15;99224.19;4465350;32;34173;-74
2023/08/31 02:26:48;;;;;;;;;;;;;;;23.77;51.11;99224.91;4467699;32;33700;-76
2023/08/31 02:29:15;;;;;;;;;;;;;;;24.02;50.52;99228.88;4467940;32;34118;-74
2023/08/31 02:31:45;;;;;;;;;;;;;;;24.78;48.04;99222.91;4464834;32;34266;-76
2023/08/31 02:34:12;;;;;;;;;;;;;;;25.48;46.04;99219.53;4459902;32;33771;-75
2023/08/31 02:36:39;;;;;;;;;;;;;;;24.82;48.02;99218.41;4467626;32;34828;-75
2023/08/31 02:39:07;;;;;;;;;;;;;;;25.25;46.48;99218.31;4467904;32;34293;-76
2023/08/31 02:41:36;;;;;;;;;;;;;;;25.40;45.89;99221.50;4467809;32;35172;-75
2023/08/31 02:44:04;;;;;;;;;;;;;;;24.59;48.21;99226.88;4467833;32;33378;-74
2023/08/31 02:46:31;;;;;;;;;;;;;;;24.51;48.09;99230.56;4467588;32;34780;-76
2023/08/31 02:48:59;;;;;;;;;;;;;;;24.11;49.21;99239.28;4467796;32;34685;-76
2023/08/31 02:51:26;;;;;;;;;;;;;;;25.20;46.10;99230.78;4463748;32;32754;-74
2023/08/31 02:53:53;;;;;;;;;;;;;;;25.40;45.51;99224.16;4467191;32;33399;-76
2023/08/31 02:56:21;;;;;;;;;;;;;;;24.83;47.55;99226.34;4466586;32;34810;-75
2023/08/31 02:58:48;;;;;;;;;;;;;;;25.22;46.35;99228.09;4463985;32;34336;-75
2023/08/31 03:01:16;;;;;;;;;;;;;;;25.43;45.63;99226.72;4463142;32;35272;-75
2023/08/31 03:03:45;;;;;;;;;;;;;;;25.00;47.14;99223.31;4464414;32;33636;-76
2023/08/31 03:06:13;;;;;;;;;;;;;;;25.14;46.55;99215.03;4468247;32;33879;-75
2023/08/31 03:08:41;;;;;;;;;;;;;;;25.33;46.20;99217.28;4467590;32;34044;-75
2023/08/31 03:11:08;;;;;;;;;;;;;;;25.08;46.82;99220.47;4467024;32;34338;-75
2023/08/31 03:13:35;;;;;;;;;;;;;;;24.14;48.86;99226.00;4466297;32;33014;-76
2023/08/31 03:16:03;;;;;;;;;;;;;;;23.61;50.44;99227.84;4467416;32;34968;-76
2023/08/31 03:18:31;;;;;;;;;;;;;;;23.76;50.29;99226.69;4467268;32;34196;-75
2023/08/31 03:20:58;;;;;;;;;;;;;;;23.51;51.00;99228.91;4463957;32;35218;-74
2023/08/31 03:23:26;;;;;;;;;;;;;;;23.53;51.00;99232.38;4467623;32;34298;-75
2023/08/31 03:25:53;;;;;;;;;;;;;;;23.21;51.88;99220.56;4467652;32;34741;-75
2023/08/31 03:28:20;;;;;;;;;;;;;;;23.34;51.31;99227.41;4467341;32;34885;-75
2023/08/31 03:30:55;;;;;;;;;;;;;;;23.69;49.73;99238.28;4466906;32;34492;-76
2023/08/31 03:33:23;;;;;;;;;;;;;;;23.97;49.42;99240.44;4465250;32;34617;-75
2023/08/31 03:35:50;;;;;;;;;;;;;;;22.83;52.79;99237.84;4468277;32;34138;-75
2023/08/31 03:38:17;;;;;;;;;;;;;;;22.92;53.01;99239.47;4469682;32;35102;-75
2023/08/31 03:40:54;;;;;;;;;;;;;;;23.09;51.72;99244.53;4469378;32;34376;-76
2023/08/31 03:43:22;;;;;;;;;;;;;;;22.78;53.40;99247.59;4456375;32;33675;-74
2023/08/31 03:45:55;;;;;;;;;;;;;;;23.80;50.49;99246.94;4469498;32;34845;-75
2023/08/31 03:48:23;;;;;;;;;;;;;;;24.39;48.68;99246.66;4469077;32;34920;-75
2023/08/31 03:50:52;;;;;;;;;;;;;;;25.27;45.72;99237.72;4469587;32;35168;-74
2023/08/31 03:53:19;;;;;;;;;;;;;;;25.46;45.14;99238.13;4469066;32;33115;-76
2023/08/31 03:55:46;;;;;;;;;;;;;;;24.91;45.73;99237.63;4469412;32;33988;-74
2023/08/31 03:58:14;;;;;;;;;;;;;;;24.58;46.76;99246.34;4469435;32;34607;-75
2023/08/31 04:00:42;;;;;;;;;;;;;;;25.31;44.83;99239.37;4469212;32;34413;-74
2023/08/31 04:03:09;;;;;;;;;;;;;;;24.68;46.31;99242.56;4469575;32;33786;-75
2023/08/31 04:05:37;;;;;;;;;;;;;;;24.97;45.57;99243.69;4469463;32;34243;-75
2023/08/31 04:08:06;;;;;;;;;;;;;;;24.66;46.21;99245.25;4469272;32;34302;-76
2023/08/31 04:10:34;;;;;;;;;;;;;;;24.27;47.07;99246.91;4466221;32;34106;-76
2023/08/31 04:13:01;;;;;;;;;;;;;;;24.08;47.62;99252.56;4467365;32;34280;-75
2023/08/31 04:15:30;;;;;;;;;;;;;;;23.89;48.25;99257.34;4467664;32;34793;-75
2023/08/31 04:17:58;;;;;;;;;;;;;;;23.64;49.66;99262.16;4467978;32;34265;-75
2023/08/31 04:20:25;;;;;;;;;;;;;;;23.43;50.68;99262.50;4468927;32;35154;-74
2023/08/31 04:22:52;;;;;;;;;;;;;;;23.17;51.36;99266.44;4467743;32;34193;-75
2023/08/31 04:25:20;;;;;;;;;;;;;;;23.50;49.95;99266.78;4455929;32;34242;-75
2023/08/31 04:27:47;;;;;;;;;;;;;;;24.44;47.32;99262.47;4468186;32;34261;-75
2023/08/31 04:30:15;;;;;;;;;;;;;;;24.47;47.40;99270.34;4466139;32;34777;-74
2023/08/31 04:32:44;;;;;;;;;;;;;;;24.12;48.38;99278.06;4466364;32;33493;-76
2023/08/31 04:35:11;;;;;;;;;;;;;;;23.42;49.91;99276.63;4469173;32;34249;-76
2023/08/31 04:37:38;;;;;;;;;;;;;;;24.15;47.94;99285.09;4457929;32;32202;-75
2023/08/31 04:40:08;;;;;;;;;;;;;;;24.52;47.24;99290.56;4469202;32;34863;-76
2023/08/31 04:42:35;;;;;;;;;;;;;;;24.19;47.74;99296.50;4469140;32;34000;-74
2023/08/31 04:45:03;;;;;;;;;;;;;;;24.49;46.42;99295.91;4467501;32;34781;-75
2023/08/31 04:47:30;;;;;;;;;;;;;;;24.09;47.31;99291.38;4468462;32;34864;-75
2023/08/31 04:49:59;;;;;;;;;;;;;;;24.09;47.60;99301.94;4471004;32;34328;-75
2023/08/31 04:52:26;;;;;;;;;;;;;;;24.63;46.57;99293.00;4468862;32;33701;-75
2023/08/31 04:54:53;;;;;;;;;;;;;;;24.50;46.61;99292.31;4469241;32;34887;-75
2023/08/31 04:57:21;;;;;;;;;;;;;;;24.75;46.46;99291.87;4468837;32;34709;-74
2023/08/31 04:59:48;;;;;;;;;;;;;;;24.52;47.23;99306.44;4468673;32;34601;-75
2023/08/31 05:02:15;;;;;;;;;;;;;;;24.75;46.64;99296.28;4467795;32;34190;-77
2023/08/31 05:04:43;;;;;;;;;;;;;;;24.34;47.79;99312.94;4469022;32;34790;-77
2023/08/31 05:07:10;;;;;;;;;;;;;;;24.40;48.00;99311.97;4467330;32;34129;-75
2023/08/31 05:09:37;;;;;;;;;;;;;;;24.36;47.81;99312.91;4467340;32;35037;-77
2023/08/31 05:12:04;;;;;;;;;;;;;;;24.67;47.36;99320.28;4463545;32;33538;-75
2023/08/31 05:14:35;;;;;;;;;;;;;;;24.27;48.50;99321.91;4465735;32;35043;-75
2023/08/31 05:17:06;;;;;;;;;;;;;;;24.90;46.74;99320.69;4466611;32;35406;-75
2023/08/31 05:19:33;;;;;;;;;;;;;;;24.99;46.28;99331.97;4468070;32;34046;-76
2023/08/31 05:22:01;;;;;;;;;;;;;;;25.17;46.18;99328.94;4467657;32;34419;-76
2023/08/31 05:24:28;;;;;;;;;;;;;;;25.43;45.41;99338.09;4466711;32;34696;-75
2023/08/31 05:26:55;;;;;;;;;;;;;;;25.47;45.13;99335.31;4465515;32;34189;-75
2023/08/31 05:29:23;;;;;;;;;;;;;;;25.21;46.20;99343.84;4458135;32;34997;-74
2023/08/31 05:31:51;;;;;;;;;;;;;;;24.95;46.99;99348.84;4467372;32;33586;-75
2023/08/31 05:34:21;;;;;;;;;;;;;;;25.18;46.11;99351.00;4468534;32;34221;-75
2023/08/31 05:36:48;;;;;;;;;;;;;;;25.44;45.59;99345.13;4465866;32;34165;-75
2023/08/31 05:39:18;;;;;;;;;;;;;;;25.15;46.36;99346.66;4466384;32;34555;-76
2023/08/31 05:41:45;;;;;;;;;;;;;;;24.59;47.10;99364.56;4467236;32;34254;-76
2023/08/31 05:44:12;;;;;;;;;;;;;;;25.04;46.20;99356.59;4468844;32;34212;-76
2023/08/31 05:46:40;;;;;;;;;;;;;;;25.31;45.88;99358.66;4468396;32;34101;-75
2023/08/31 05:49:08;;;;;;;;;;;;;;;25.40;45.58;99370.88;4468871;32;34303;-76
2023/08/31 05:51:35;;;;;;;;;;;;;;;25.20;46.12;99362.44;4468999;32;33692;-75
2023/08/31 05:54:03;;;;;;;;;;;;;;;25.73;44.54;99362.13;4469356;32;34803;-76
2023/08/31 05:56:30;;;;;;;;;;;;;;;25.38;45.43;99366.47;4468751;32;34279;-76
2023/08/31 05:58:58;;;;;;;;;;;;;;;25.81;44.06;99366.34;4468466;32;35001;-76
2023/08/31 06:01:25;;;;;;;;;;;;;;;25.29;45.53;99373.75;4468527;32;33412;-74
2023/08/31 06:03:53;;;;;;;;;;;;;;;25.43;45.09;99375.22;4468917;32;33752;-76
2023/08/31 06:06:20;;;;;;;;;;;;;;;25.47;45.65;99380.41;4466258;32;34167;-76
2023/08/31 06:08:48;;;;;;;;;;;;;;;25.04;46.73;99399.00;4465074;32;34300;-76
2023/08/31 06:11:15;;;;;;;;;;;;;;;25.53;45.98;99395.31;4468082;32;34092;-75
2023/08/31 06:13:42;;;;;;;;;;;;;;;25.66;45.13;99386.16;4465798;32;32884;-76
2023/08/31 06:16:10;;;;;;;;;;;;;;;25.79;45.25;99394.69;4468478;32;34167;-75
2023/08/31 06:18:38;;;;;;;;;;;;;;;25.83;44.95;99390.19;4468021;32;34808;-76
2023/08/31 06:21:05;;;;;;;;;;;;;;;25.76;44.82;99393.91;4468155;32;34716;-76
2023/08/31 06:23:32;;;;;;;;;;;;;;;26.02;43.70;99399.47;4468295;32;34741;-76
2023/08/31 06:25:59;;;;;;;;;;;;;;;26.09;43.81;99403.72;4468309;32;34844;-78
2023/08/31 06:28:27;;;;;;;;;;;;;;;25.35;45.32;99401.03;4467896;32;35009;-75
2023/08/31 06:30:54;;;;;;;;;;;;;;;26.00;44.28;99409.28;4464977;32;32887;-74
2023/08/31 06:33:22;;;;;;;;;;;;;;;26.00;44.42;99414.56;4468947;32;33980;-74
2023/08/31 06:35:51;;;;;;;;;;;;;;;26.03;44.17;99418.94;4454688;32;34162;-75
2023/08/31 06:38:19;;;;;;;;;;;;;;;26.15;44.02;99413.31;4465190;32;34817;-74
2023/08/31 06:40:47;;;;;;;;;;;;;;;25.78;44.62;99408.00;4465715;32;33587;-75
2023/08/31 06:43:14;;;;;;;;;;;;;;;26.59;42.31;99418.41;4456450;32;33825;-75
2023/08/31 06:45:41;;;;;;;;;;;;;;;26.18;43.31;99412.38;4458095;32;34886;-75
2023/08/31 06:48:09;;;;;;;4.37;2.78;;;;;;;26.61;43.03;99412.13;4467932;32;34475;-75
2023/08/31 06:50:37;;;;;;;4.93;3.42;;;;;;;26.16;43.41;99416.84;4465444;32;34178;-80
2023/08/31 06:53:04;;;;;;;6.47;3.65;;;;;;;25.42;45.16;99421.19;4458916;32;34873;-75
2023/08/31 06:55:33;;;;;;;5.30;2.85;;;;;;;25.15;45.85;99428.81;4467307;32;34055;-75
2023/08/31 06:58:02;;;;;;;;;;;;;;;25.88;44.23;99420.13;4467415;32;33901;-74
2023/08/31 07:00:29;;;;;;;;;;;;;;;26.11;43.82;99426.69;4468251;32;33058;-74
2023/08/31 07:02:56;;;;;;;;;;;;;;;26.28;43.36;99429.81;4466187;32;34254;-75
2023/08/31 07:05:29;;;;;;;;;;;;;;;26.02;43.94;99436.63;4458254;32;34417;-75
2023/08/31 07:07:56;;;;;;;;;;;;;;;26.36;43.69;99443.75;4452174;32;32068;-75
2023/08/31 07:10:24;;;;;;;;;;;;;;;26.43;43.47;99445.34;4468093;32;33540;-75
2023/08/31 07:12:51;;;;;;;;;;;;;;;26.79;42.82;99441.78;4469966;32;35346;-76
2023/08/31 07:15:19;;;;;;;;;;;;;;;26.51;43.85;99446.94;4463693;32;33949;-75
2023/08/31 07:17:46;;;;;;;;;;;;;;;26.70;43.09;99453.53;4467505;32;35027;-75
2023/08/31 07:20:13;;;;;;;;;;;;;;;26.80;42.80;99457.69;4466924;32;33629;-75
2023/08/31 07:22:41;;;;;;;4.70;2.75;;;;;;;26.64;43.00;99454.56;4466090;32;35245;-75
2023/08/31 07:25:10;;;;;;;5.43;3.35;;;;;;;26.79;42.58;99458.63;4468358;32;34782;-75
2023/08/31 07:27:38;;;;;;;5.95;3.53;;;;;;;25.70;45.54;99455.94;4437081;32;33782;-76
2023/08/31 07:30:06;;;;;;;5.22;2.87;;;;;;;26.03;44.67;99453.44;4468059;32;33502;-76
2023/08/31 07:32:34;;;;;;;5.37;3.08;;;;;;;26.55;43.72;99462.75;4465948;32;33645;-75
2023/08/31 07:35:03;;;;;;;;;;;;;;;26.86;42.88;99460.16;4468981;32;34013;-75
2023/08/31 07:37:30;;;;;;;;;;;;;;;26.68;43.55;99463.34;4469942;32;34303;-74
2023/08/31 07:39:57;;;;;;;;;;;;;;;26.79;43.28;99458.63;4465868;32;33682;-75
2023/08/31 07:42:25;;;;;;;;;;;;;;;26.85;43.02;99463.75;4468305;32;33727;-74
2023/08/31 07:44:52;;;;;;;6.15;3.10;;;;;;;26.90;43.13;99462.75;4469354;32;33933;-75
2023/08/31 07:47:20;;;;;;;6.03;3.42;;;;;;;27.35;42.22;99470.34;4459642;32;34809;-75
2023/08/31 07:49:47;;;;;;;5.03;2.90;;;;;;;27.34;41.79;99469.50;4469344;32;34354;-74
2023/08/31 07:52:15;;;;;;;7.15;2.50;;;;;;;27.29;41.44;99471.41;4469388;32;34767;-74
2023/08/31 07:54:42;;;;;;;;;;;;;;;27.19;41.68;99473.44;4469705;32;34054;-75
2023/08/31 07:57:09;;;;;;;;;;;;;;;27.39;41.18;99472.00;4469646;32;34462;-74
2023/08/31 07:59:39;;;;;;;5.32;2.92;;;;;;;27.36;41.28;99472.12;4468932;32;33366;-74
2023/08/31 08:02:07;;;;;;;4.95;3.05;;;;;;;27.13;41.45;99475.41;4469277;32;33663;-75
2023/08/31 08:04:35;;;;;;;5.05;2.58;;;;;;;27.65;40.33;99474.75;4468743;32;34615;-76
2023/08/31 08:07:03;;;;;;;5.50;2.53;;;;;;;27.47;41.16;99475.34;4468872;32;33845;-74
2023/08/31 08:09:30;;;;;;;5.05;2.97;;;;;;;27.31;41.45;99474.87;4466960;32;34411;-75
2023/08/31 08:11:58;;;;;;;5.05;2.90;;;;;;;27.11;41.44;99480.75;4466808;32;34656;-74
2023/08/31 08:14:25;;;;;;;4.65;2.87;;;;;;;27.13;41.18;99489.56;4468707;32;33984;-75
2023/08/31 08:16:53;;;;;;;5.60;3.08;;;;;;;27.89;39.18;99490.06;4466552;32;34627;-74
2023/08/31 08:19:23;;;;;;;5.72;2.87;;;;;;;28.00;38.86;99480.81;4466982;32;33639;-75
2023/08/31 08:21:51;;;;;;;4.05;2.47;;;;;;;27.95;39.31;99488.09;4452911;32;33830;-74
2023/08/31 08:24:18;;;;;;;3.55;2.12;;;;;;;27.95;39.33;99487.19;4459401;32;34026;-74
2023/08/31 08:26:46;;;;;;;5.50;2.20;;;;;;;27.74;39.66;99491.34;4468063;32;33721;-75
2023/08/31 08:29:13;;;;;;;4.25;2.50;;;;;;;28.32;38.49;99489.56;4469015;32;34521;-75
2023/08/31 08:31:42;;;;;;;4.12;2.58;;;;;;;28.11;39.07;99491.13;4468459;32;33536;-75
2023/08/31 08:34:10;;;;;;;3.83;1.98;;;;;;;27.81;40.24;99487.59;4468956;32;33901;-74
2023/08/31 08:36:37;;;;;;;5.35;2.55;;;;;;;28.06;39.39;99486.88;4467513;32;32685;-75
2023/08/31 08:39:05;;;;;;;3.53;2.20;;;;;;;28.14;40.13;99490.16;4467709;32;33553;-75
2023/08/31 08:41:33;;;;;;;3.92;2.40;;;;;;;28.15;40.10;99495.44;4461144;32;33857;-77
2023/08/31 08:44:03;;;;;;;4.18;2.50;;;;;;;28.68;38.91;99496.38;4463295;32;34765;-75
2023/08/31 08:46:32;;;;;;;4.68;2.28;;;;;;;28.67;38.01;99490.19;4463629;32;33966;-74
2023/08/31 08:49:02;;;;;;;3.37;1.85;;;;;;;29.16;37.14;99483.13;4466915;32;34418;-75
2023/08/31 08:51:31;;;;;;;3.10;1.70;;;;;;;29.31;37.43;99503.03;4466809;32;32985;-76
2023/08/31 08:54:00;;;;;;;4.37;1.62;;;;;;;29.40;36.95;99501.84;4461739;32;33574;-75
2023/08/31 08:56:27;;;;;;;3.15;1.62;;;;;;;29.60;36.02;99507.28;4465404;32;35113;-74
2023/08/31 08:58:55;;;;;;;3.67;1.55;;;;;;;29.06;35.86;99505.72;4460601;32;32997;-74
2023/08/31 09:01:23;;;;;;;4.40;1.80;;;;;;;28.85;35.80;99506.47;4459957;32;32454;-74
2023/08/31 09:03:51;;;;;;;6.18;1.60;;;;;;;29.19;34.27;99504.38;4467257;32;33816;-75
2023/08/31 09:06:20;;;;;;;7.78;1.70;;;;;;;29.49;34.46;99519.28;4465729;32;34049;-74
2023/08/31 09:08:56;;;;;;;3.10;1.55;;;;;;;29.38;34.87;99519.69;4461551;32;34252;-74
2023/08/31 09:11:24;;;;;;;2.78;1.30;;;;;;;29.69;34.88;99518.53;4462728;32;33769;-74
2023/08/31 09:13:52;;;;;;;3.17;1.50;;;;;;;29.77;34.55;99516.50;4458652;32;34540;-73
2023/08/31 09:16:28;;;;;;;4.87;1.60;;;;;;;30.23;33.30;99514.66;4455745;32;34767;-75
2023/08/31 09:18:57;;;;;;;3.05;1.60;;;;;;;29.96;33.73;99527.28;4465311;32;34188;-75
2023/08/31 09:21:40;;;;;;;2.78;1.40;;;;;;;30.08;33.30;99523.28;4466709;32;33189;-75
2023/08/31 09:24:10;;;;;;;3.35;1.58;;;;;;;30.35;33.03;99527.53;4464443;32;33625;-76
2023/08/31 09:26:43;;;;;;;2.50;1.62;;;;;;;30.45;33.64;99524.50;4467401;32;33764;-75
2023/08/31 09:29:11;;;;;;;2.78;1.30;;;;;;;30.90;32.10;99526.19;4467753;32;33644;-75
2023/08/31 09:31:46;;;;;;;2.65;1.65;;;;;;;31.26;32.04;99523.69;4465809;32;35191;-75
2023/08/31 09:34:33;;;;;;;4.68;1.60;;;;;;;30.73;33.07;99522.41;4455560;32;34173;-75
2023/08/31 09:37:08;;;;;;;3.40;1.52;;;;;;;30.82;33.05;99533.63;4465600;32;34845;-75
2023/08/31 09:39:37;;;;;;;2.75;1.40;;;;;;;30.95;31.50;99529.53;4467910;32;33819;-75
2023/08/31 09:42:05;;;;;;;2.50;1.55;;;;;;;31.16;31.35;99528.59;4468251;32;33683;-73
2023/08/31 09:44:33;;;;;;;2.78;1.52;;;;;;;31.28;31.34;99532.50;4468430;32;33292;-76
2023/08/31 09:47:03;;;;;;;3.53;1.52;;;;;;;31.24;31.60;99530.91;4458200;32;34067;-76
2023/08/31 09:49:32;;;;;;;3.47;1.73;;;;;;;31.43;31.39;99530.97;4458230;32;33452;-76
2023/08/31 09:52:04;;;;;;;3.33;1.75;;;;;;;31.61;29.66;99533.75;4467172;32;34372;-76
2023/08/31 09:54:33;;;;;;;2.85;1.42;;;;;;;31.05;31.04;99533.53;4468146;32;33621;-79
2023/08/31 09:57:02;;;;;;;2.90;1.37;;;;;;;30.88;31.25;99549.41;4466738;32;34768;-79
2023/08/31 09:59:30;;;;;;;3.33;1.35;;;;;;;31.10;30.51;99550.25;4466421;32;34141;-77
2023/08/31 10:02:00;;;;;;;4.40;1.40;;;;;;;30.90;30.79;99542.22;4472033;32;33770;-74
2023/08/31 10:04:30;;;;;;;6.40;1.62;;;;;;;31.18;31.36;99547.25;4467240;32;34948;-76
2023/08/31 10:06:58;;;;;;;3.03;1.58;;;;;;;31.44;31.38;99551.41;4451972;32;34074;-75
2023/08/31 10:09:26;;;;;;;3.28;1.60;;;;;;;31.16;31.04;99555.34;4460316;32;34432;-75
2023/08/31 10:11:54;;;;;;;3.17;1.50;;;;;;;30.61;31.82;99549.63;4463414;32;35250;-75
2023/08/31 10:14:21;;;;;;;2.60;1.42;;;;;;;29.93;33.44;99572.84;4457239;32;33376;-75
2023/08/31 10:16:50;;;;;;;4.50;1.50;;;;;;;30.44;32.80;99565.50;4465371;32;33769;-76
2023/08/31 10:19:17;;;;;;;;;;;;;;;29.39;34.51;99574.81;4459277;32;33518;-74
2023/08/31 10:21:44;;;;;;;;;;;;;;;30.01;33.60;99568.06;4465513;32;33637;-75
2023/08/31 10:24:12;;;;;;;;;;;;;;;29.91;34.05;99569.34;4465538;32;34771;-75
2023/08/31 10:26:40;;;;;;;;;;;;;;;30.36;32.88;99564.00;4453052;32;34468;-75
2023/08/31 10:29:08;;;;;;;;;;;;;;;29.96;33.89;99576.25;4465392;32;34206;-74
2023/08/31 10:31:35;;;;;;;;;;;;;;;30.62;32.38;99567.44;4466006;32;34055;-75
2023/08/31 10:34:09;;;;;;;;;;;;;;;30.41;32.60;99563.84;4464999;32;34043;-74
2023/08/31 10:36:38;;;;;;;;;;;;;;;30.47;32.32;99571.59;4462229;32;34458;-74
2023/08/31 10:39:10;;;;;;;;;;;;;;;29.33;34.43;99583.03;4468457;32;33393;-75
2023/08/31 10:41:38;;;;;;;;;;;;;;;30.32;33.27;99578.41;4468081;32;33591;-75
2023/08/31 10:44:33;;;;;;;;;;;;;;;30.48;32.40;99585.81;4468363;32;34918;-75
2023/08/31 10:47:00;;;;;;;;;;;;;;;30.08;32.47;99584.72;4465836;32;35017;-75
2023/08/31 10:49:27;;;;;;;;;;;;;;;30.11;32.84;99584.59;4470825;32;34292;-74
2023/08/31 10:51:55;;;;;;;;;;;;;;;30.52;30.93;99584.75;4469074;32;34926;-74
2023/08/31 10:54:34;;;;;;;;;;;;;;;30.05;32.18;99585.69;4469209;32;33538;-75
2023/08/31 10:57:06;;;;;;;;;;;;;;;29.87;32.30;99589.09;4470681;32;34260;-74
2023/08/31 10:59:51;;;;;;;;;;;;;;;30.04;32.35;99589.31;4467292;32;33401;-74
2023/08/31 11:02:28;;;;;;;;;;;;;;;29.74;32.84;99592.19;4466249;32;33856;-75
2023/08/31 11:05:16;;;;;;;;;;;;;;;29.81;32.98;99595.53;4465146;32;34188;-74
2023/08/31 11:07:47;;;;;;;;;;;;;;;29.67;33.21;99603.13;4466719;32;34145;-74
2023/08/31 11:10:26;;;;;;;;;;;;;;;29.49;33.98;99602.88;4462581;32;33126;-74
2023/08/31 11:12:57;;;;;;;;;;;;;;;30.26;33.32;99604.50;4461788;32;32523;-75
2023/08/31 11:15:29;;;;;;;;;;;;;;;30.54;32.69;99598.97;4468626;32;33842;-74
2023/08/31 11:17:57;;;;;;;;;;;;;;;30.38;32.61;99610.28;4470254;32;35120;-75
2023/08/31 11:20:28;;;;;;;;;;;;;;;30.51;32.79;99605.28;4467545;32;33668;-74
2023/08/31 11:22:56;;;;;;;;;;;;;;;30.91;32.05;99597.47;4468401;32;34560;-75
2023/08/31 11:25:24;;;;;;;3.62;1.60;;;;;;;30.88;32.10;99602.91;4469311;32;34108;-75
2023/08/31 11:27:57;;;;;;;4.95;1.62;;;;;;;30.84;32.56;99601.28;4469536;32;34674;-75
2023/08/31 11:30:32;;;;;;;2.58;1.42;;;;;;;31.30;31.83;99599.34;4469881;32;33670;-75
2023/08/31 11:33:05;;;;;;;2.30;1.30;;;;;;;31.45;32.09;99608.53;4469500;32;33736;-74
2023/08/31 11:35:37;;;;;;;3.42;1.50;;;;;;;31.76;30.86;99608.03;4468989;32;34046;-75
2023/08/31 11:38:05;;;;;;;3.30;1.65;;;;;;;31.86;29.92;99598.63;4469804;32;34130;-75
2023/08/31 11:40:33;;;;;;;3.53;1.58;;;;;;;31.79;30.29;99599.84;4467727;32;34396;-74
2023/08/31 11:43:06;;;;;;;1.98;1.30;;;;;;;31.68;30.58;99599.47;4469589;32;33819;-75
2023/08/31 11:45:34;;;;;;;;;;;;;;;31.72;30.79;99601.09;4469070;32;33574;-75
2023/08/31 11:48:02;;;;;;;;;;;;;;;31.51;31.79;99597.56;4470064;32;35060;-75
2023/08/31 11:50:30;;;;;;;2.70;1.40;;;;;;;31.80;30.93;99606.94;4468913;32;33408;-75
2023/08/31 11:52:58;;;;;;;3.85;1.50;;;;;;;31.92;31.03;99601.00;4468294;32;34633;-74
2023/08/31 11:55:26;;;;;;;2.67;1.42;;;;;;;32.19;29.96;99598.00;4469523;32;34927;-75
2023/08/31 11:57:54;;;;;;;3.08;1.83;;;;;;;31.89;29.71;99598.50;4468076;32;34150;-74
2023/08/31 12:00:23;;;;;;;2.87;1.67;;;;;;;32.46;28.87;99594.94;4469727;32;34333;-75
2023/08/31 12:03:04;;;;;;;4.40;1.98;;;;;;;32.19;29.68;99595.34;4468539;32;33998;-75
2023/08/31 12:05:46;;;;;;;2.97;1.87;;;;;;;31.80;30.85;99593.56;4459376;32;33391;-75
2023/08/31 12:08:16;;;;;;;4.65;1.98;;;;;;;32.51;28.75;99591.09;4468279;32;34136;-74
2023/08/31 12:10:44;;;;;;;5.07;2.00;;;;;;;31.84;29.99;99594.28;4467870;32;33483;-75
2023/08/31 12:13:15;;;;;;;2.62;1.48;;;;;;;32.79;28.43;99594.25;4468864;32;33736;-74
2023/08/31 12:15:43;;;;;;;3.17;1.67;;;;;;;33.06;27.69;99592.84;4466033;32;33738;-74
2023/08/31 12:18:12;;;;;;;2.92;1.73;;;;;;;32.48;29.49;99588.56;4464212;32;32550;-74
2023/08/31 12:20:44;;;;;;;2.75;1.60;;;;;;;32.96;27.62;99591.56;4468906;32;33622;-74
2023/08/31 12:23:14;;;;;;;2.17;1.67;;;;;;;33.09;27.67;99587.31;4468875;32;34472;-74
2023/08/31 12:25:52;;;;;;;3.72;1.90;;;;;;;33.22;27.19;99594.75;4468689;32;33114;-75
2023/08/31 12:28:22;;;;;;;2.55;1.62;;;;;;;32.81;28.13;99587.00;4467090;32;34147;-75
2023/08/31 12:30:51;;;;;;;3.62;1.90;;;;;;;32.81;28.20;99592.34;4468540;32;33477;-74